sensor_id;sensor_type;location;lat;lon;timestamp;pressure;altitude;pressure_sealevel;temperature
43292;BMP280;28754;47.700;7.924;2024-01-10T00:00:17;91651.31;;;-1.98
43292;BMP280;28754;47.700;7.924;2024-01-10T00:03:04;91648.38;;;-2.02
43292;BMP280;28754;47.700;7.924;2024-01-10T00:05:51;91643.97;;;-2.00
43292;BMP280;28754;47.700;7.924;2024-01-10T00:08:37;91651.66;;;-2.01
43292;BMP280;28754;47.700;7.924;2024-01-10T00:11:24;91656.16;;;-1.97
43292;BMP280;28754;47.700;7.924;2024-01-10T00:14:11;91649.47;;;-1.90
43292;BMP280;28754;47.700;7.924;2024-01-10T00:16:57;91643.16;;;-1.86
43292;BMP280;28754;47.700;7.924;2024-01-10T00:19:45;91634.13;;;-1.80
43292;BMP280;28754;47.700;7.924;2024-01-10T00:22:31;91636.09;;;-1.76
43292;BMP280;28754;47.700;7.924;2024-01-10T00:25:18;91626.66;;;-1.74
43292;BMP280;28754;47.700;7.924;2024-01-10T00:28:05;91628.44;;;-1.68
43292;BMP280;28754;47.700;7.924;2024-01-10T00:30:52;91631.91;;;-1.69
43292;BMP280;28754;47.700;7.924;2024-01-10T00:33:39;91632.50;;;-1.67
43292;BMP280;28754;47.700;7.924;2024-01-10T00:36:26;91623.03;;;-1.65
43292;BMP280;28754;47.700;7.924;2024-01-10T00:39:13;91627.72;;;-1.62
43292;BMP280;28754;47.700;7.924;2024-01-10T00:41:59;91630.03;;;-1.61
43292;BMP280;28754;47.700;7.924;2024-01-10T00:44:46;91630.84;;;-1.60
43292;BMP280;28754;47.700;7.924;2024-01-10T00:47:33;91634.28;;;-1.61
43292;BMP280;28754;47.700;7.924;2024-01-10T00:50:19;91626.09;;;-1.70
43292;BMP280;28754;47.700;7.924;2024-01-10T00:53:06;91623.41;;;-1.68
43292;BMP280;28754;47.700;7.924;2024-01-10T00:55:53;91639.84;;;-1.66
43292;BMP280;28754;47.700;7.924;2024-01-10T00:58:39;91631.94;;;-1.63
43292;BMP280;28754;47.700;7.924;2024-01-10T01:01:26;91627.78;;;-1.56
43292;BMP280;28754;47.700;7.924;2024-01-10T01:04:13;91638.69;;;-1.42
43292;BMP280;28754;47.700;7.924;2024-01-10T01:06:59;91635.28;;;-1.35
43292;BMP280;28754;47.700;7.924;2024-01-10T01:09:46;91629.84;;;-1.38
43292;BMP280;28754;47.700;7.924;2024-01-10T01:12:33;91633.09;;;-1.44
43292;BMP280;28754;47.700;7.924;2024-01-10T01:15:19;91622.38;;;-1.53
43292;BMP280;28754;47.700;7.924;2024-01-10T01:18:06;91626.41;;;-1.58
43292;BMP280;28754;47.700;7.924;2024-01-10T01:20:53;91624.66;;;-1.58
43292;BMP280;28754;47.700;7.924;2024-01-10T01:23:39;91632.97;;;-1.57
43292;BMP280;28754;47.700;7.924;2024-01-10T01:26:26;91635.91;;;-1.54
43292;BMP280;28754;47.700;7.924;2024-01-10T01:29:13;91644.09;;;-1.45
43292;BMP280;28754;47.700;7.924;2024-01-10T01:31:59;91638.31;;;-1.39
43292;BMP280;28754;47.700;7.924;2024-01-10T01:34:46;91645.69;;;-1.38
43292;BMP280;28754;47.700;7.924;2024-01-10T01:37:33;91643.94;;;-1.38
43292;BMP280;28754;47.700;7.924;2024-01-10T01:40:20;91639.41;;;-1.48
43292;BMP280;28754;47.700;7.924;2024-01-10T01:43:25;91634.28;;;-1.61
43292;BMP280;28754;47.700;7.924;2024-01-10T01:46:12;91645.63;;;-1.65
43292;BMP280;28754;47.700;7.924;2024-01-10T01:49:00;91639.84;;;-1.66
43292;BMP280;28754;47.700;7.924;2024-01-10T01:51:47;91633.47;;;-1.68
43292;BMP280;28754;47.700;7.924;2024-01-10T01:54:34;91639.41;;;-1.69
43292;BMP280;28754;47.700;7.924;2024-01-10T01:57:21;91633.84;;;-1.71
43292;BMP280;28754;47.700;7.924;2024-01-10T02:00:08;91651.97;;;-1.69
43292;BMP280;28754;47.700;7.924;2024-01-10T02:02:58;91641.38;;;-1.71
43292;BMP280;28754;47.700;7.924;2024-01-10T02:05:46;91642.84;;;-1.76
43292;BMP280;28754;47.700;7.924;2024-01-10T02:08:35;91663.53;;;-1.74
43292;BMP280;28754;47.700;7.924;2024-01-10T02:11:22;91658.19;;;-1.65
43292;BMP280;28754;47.700;7.924;2024-01-10T02:14:10;91659.28;;;-1.53
43292;BMP280;28754;47.700;7.924;2024-01-10T02:16:57;91653.00;;;-1.43
43292;BMP280;28754;47.700;7.924;2024-01-10T02:19:43;91660.22;;;-1.34
43292;BMP280;28754;47.700;7.924;2024-01-10T02:22:30;91653.72;;;-1.28
43292;BMP280;28754;47.700;7.924;2024-01-10T02:25:17;91655.41;;;-1.29
43292;BMP280;28754;47.700;7.924;2024-01-10T02:28:04;91652.31;;;-1.31
43292;BMP280;28754;47.700;7.924;2024-01-10T02:30:54;91645.75;;;-1.32
43292;BMP280;28754;47.700;7.924;2024-01-10T02:33:41;91656.94;;;-1.34
43292;BMP280;28754;47.700;7.924;2024-01-10T02:36:27;91655.97;;;-1.33
43292;BMP280;28754;47.700;7.924;2024-01-10T02:39:14;91660.09;;;-1.26
43292;BMP280;28754;47.700;7.924;2024-01-10T02:42:01;91658.41;;;-1.19
43292;BMP280;28754;47.700;7.924;2024-01-10T02:44:48;91657.44;;;-1.18
43292;BMP280;28754;47.700;7.924;2024-01-10T02:47:35;91659.22;;;-1.12
43292;BMP280;28754;47.700;7.924;2024-01-10T02:50:23;91666.16;;;-1.14
43292;BMP280;28754;47.700;7.924;2024-01-10T02:53:10;91674.28;;;-1.12
43292;BMP280;28754;47.700;7.924;2024-01-10T02:55:56;91667.34;;;-1.10
43292;BMP280;28754;47.700;7.924;2024-01-10T02:58:43;91665.06;;;-1.05
43292;BMP280;28754;47.700;7.924;2024-01-10T03:01:29;91655.25;;;-1.00
43292;BMP280;28754;47.700;7.924;2024-01-10T03:04:16;91653.34;;;-0.98
43292;BMP280;28754;47.700;7.924;2024-01-10T03:07:03;91648.28;;;-1.04
43292;BMP280;28754;47.700;7.924;2024-01-10T03:09:50;91659.88;;;-1.03
43292;BMP280;28754;47.700;7.924;2024-01-10T03:12:37;91665.06;;;-1.05
43292;BMP280;28754;47.700;7.924;2024-01-10T03:15:24;91659.69;;;-1.02
43292;BMP280;28754;47.700;7.924;2024-01-10T03:18:11;91655.22;;;-1.06
43292;BMP280;28754;47.700;7.924;2024-01-10T03:20:58;91660.78;;;-1.11
43292;BMP280;28754;47.700;7.924;2024-01-10T03:23:45;91661.94;;;-1.07
43292;BMP280;28754;47.700;7.924;2024-01-10T03:26:31;91655.59;;;-1.03
43292;BMP280;28754;47.700;7.924;2024-01-10T03:29:18;91653.66;;;-1.07
43292;BMP280;28754;47.700;7.924;2024-01-10T03:32:05;91639.50;;;-1.15
43292;BMP280;28754;47.700;7.924;2024-01-10T03:34:52;91651.25;;;-1.22
43292;BMP280;28754;47.700;7.924;2024-01-10T03:37:38;91639.03;;;-1.25
43292;BMP280;28754;47.700;7.924;2024-01-10T03:40:25;91650.81;;;-1.25
43292;BMP280;28754;47.700;7.924;2024-01-10T03:43:12;91639.03;;;-1.25
43292;BMP280;28754;47.700;7.924;2024-01-10T03:45:58;91650.81;;;-1.25
43292;BMP280;28754;47.700;7.924;2024-01-10T03:48:46;91645.19;;;-1.27
43292;BMP280;28754;47.700;7.924;2024-01-10T03:51:35;91646.94;;;-1.28
43292;BMP280;28754;47.700;7.924;2024-01-10T03:54:22;91647.53;;;-1.26
43292;BMP280;28754;47.700;7.924;2024-01-10T03:57:09;91654.88;;;-1.24
43292;BMP280;28754;47.700;7.924;2024-01-10T03:59:55;91648.91;;;-1.23
43292;BMP280;28754;47.700;7.924;2024-01-10T04:02:42;91657.44;;;-1.18
43292;BMP280;28754;47.700;7.924;2024-01-10T04:05:29;91636.59;;;-1.12
43292;BMP280;28754;47.700;7.924;2024-01-10T04:08:15;91627.38;;;-1.05
43292;BMP280;28754;47.700;7.924;2024-01-10T04:11:02;91622.38;;;-0.99
43292;BMP280;28754;47.700;7.924;2024-01-10T04:13:49;91631.13;;;-0.95
43292;BMP280;28754;47.700;7.924;2024-01-10T04:16:36;91635.53;;;-0.97
43292;BMP280;28754;47.700;7.924;2024-01-10T04:19:23;91634.19;;;-0.99
43292;BMP280;28754;47.700;7.924;2024-01-10T04:22:09;91635.75;;;-0.98
43292;BMP280;28754;47.700;7.924;2024-01-10T04:25:01;91638.66;;;-0.95
43292;BMP280;28754;47.700;7.924;2024-01-10T04:27:48;91639.28;;;-0.86
43292;BMP280;28754;47.700;7.924;2024-01-10T04:30:36;91640.47;;;-0.82
43292;BMP280;28754;47.700;7.924;2024-01-10T04:33:23;91639.88;;;-0.84
43292;BMP280;28754;47.700;7.924;2024-01-10T04:36:09;91635.59;;;-0.90
43292;BMP280;28754;47.700;7.924;2024-01-10T04:38:56;91644.69;;;-0.89
43292;BMP280;28754;47.700;7.924;2024-01-10T04:41:43;91639.88;;;-0.84
43292;BMP280;28754;47.700;7.924;2024-01-10T04:44:30;91641.06;;;-0.80
43292;BMP280;28754;47.700;7.924;2024-01-10T04:47:16;91638.78;;;-0.75
43292;BMP280;28754;47.700;7.924;2024-01-10T04:50:04;91636.84;;;-0.73
43292;BMP280;28754;47.700;7.924;2024-01-10T04:52:51;91632.41;;;-0.71
43292;BMP280;28754;47.700;7.924;2024-01-10T04:55:38;91632.03;;;-0.69
43292;BMP280;28754;47.700;7.924;2024-01-10T04:58:24;91629.75;;;-0.64
43292;BMP280;28754;47.700;7.924;2024-01-10T05:01:11;91628.44;;;-0.60
43292;BMP280;28754;47.700;7.924;2024-01-10T05:03:57;91635.41;;;-0.55
43292;BMP280;28754;47.700;7.924;2024-01-10T05:06:44;91646.38;;;-0.63
43292;BMP280;28754;47.700;7.924;2024-01-10T05:09:31;91652.66;;;-0.79
43292;BMP280;28754;47.700;7.924;2024-01-10T05:12:18;91649.91;;;-0.91
43292;BMP280;28754;47.700;7.924;2024-01-10T05:15:05;91653.78;;;-0.88
43292;BMP280;28754;47.700;7.924;2024-01-10T05:17:52;91654.19;;;-0.85
43292;BMP280;28754;47.700;7.924;2024-01-10T05:20:39;91657.91;;;-0.81
43292;BMP280;28754;47.700;7.924;2024-01-10T05:23:25;91667.75;;;-0.79
43292;BMP280;28754;47.700;7.924;2024-01-10T05:26:12;91665.03;;;-0.84
43292;BMP280;28754;47.700;7.924;2024-01-10T05:28:59;91665.41;;;-0.87
43292;BMP280;28754;47.700;7.924;2024-01-10T05:31:45;91663.47;;;-0.85
43292;BMP280;28754;47.700;7.924;2024-01-10T05:34:32;91666.97;;;-0.80
43292;BMP280;28754;47.700;7.924;2024-01-10T05:37:19;91667.41;;;-0.76
43292;BMP280;28754;47.700;7.924;2024-01-10T05:40:07;91667.03;;;-0.73
43292;BMP280;28754;47.700;7.924;2024-01-10T05:42:53;91665.06;;;-0.78
43292;BMP280;28754;47.700;7.924;2024-01-10T05:45:40;91665.56;;;-0.89
43292;BMP280;28754;47.700;7.924;2024-01-10T05:48:27;91657.41;;;-0.97
43292;BMP280;28754;47.700;7.924;2024-01-10T05:51:14;91657.94;;;-1.02
43292;BMP280;28754;47.700;7.924;2024-01-10T05:54:00;91671.44;;;-1.09
43292;BMP280;28754;47.700;7.924;2024-01-10T05:56:47;91676.63;;;-1.10
43292;BMP280;28754;47.700;7.924;2024-01-10T05:59:34;91675.50;;;-1.08
43292;BMP280;28754;47.700;7.924;2024-01-10T06:02:23;91671.00;;;-1.12
43292;BMP280;28754;47.700;7.924;2024-01-10T06:05:11;91674.47;;;-1.13
43292;BMP280;28754;47.700;7.924;2024-01-10T06:07:57;91670.78;;;-1.17
43292;BMP280;28754;47.700;7.924;2024-01-10T06:10:44;91672.88;;;-1.21
43292;BMP280;28754;47.700;7.924;2024-01-10T06:13:33;91672.81;;;-1.27
43292;BMP280;28754;47.700;7.924;2024-01-10T06:16:20;91677.09;;;-1.28
43292;BMP280;28754;47.700;7.924;2024-01-10T06:19:07;91674.75;;;-1.29
43292;BMP280;28754;47.700;7.924;2024-01-10T06:21:53;91675.88;;;-1.32
43292;BMP280;28754;47.700;7.924;2024-01-10T06:24:40;91682.38;;;-1.37
43292;BMP280;28754;47.700;7.924;2024-01-10T06:27:30;91681.75;;;-1.45
43292;BMP280;28754;47.700;7.924;2024-01-10T06:30:16;91678.59;;;-1.54
43292;BMP280;28754;47.700;7.924;2024-01-10T06:33:03;91669.66;;;-1.56
43292;BMP280;28754;47.700;7.924;2024-01-10T06:35:53;91668.00;;;-1.49
43292;BMP280;28754;47.700;7.924;2024-01-10T06:38:40;91675.41;;;-1.41
43292;BMP280;28754;47.700;7.924;2024-01-10T06:41:27;91675.47;;;-1.35
43292;BMP280;28754;47.700;7.924;2024-01-10T06:44:18;91690.59;;;-1.29
43292;BMP280;28754;47.700;7.924;2024-01-10T06:47:05;91674.19;;;-1.25
43292;BMP280;28754;47.700;7.924;2024-01-10T06:49:51;91676.00;;;-1.19
43292;BMP280;28754;47.700;7.924;2024-01-10T06:52:38;91667.91;;;-1.14
43292;BMP280;28754;47.700;7.924;2024-01-10T06:55:25;91675.31;;;-1.06
43292;BMP280;28754;47.700;7.924;2024-01-10T06:58:12;91677.50;;;-0.97
43292;BMP280;28754;47.700;7.924;2024-01-10T07:00:59;91669.06;;;-0.90
43292;BMP280;28754;47.700;7.924;2024-01-10T07:03:53;91673.56;;;-0.79
43292;BMP280;28754;47.700;7.924;2024-01-10T07:06:41;91675.16;;;-0.71
43292;BMP280;28754;47.700;7.924;2024-01-10T07:09:27;91679.06;;;-0.63
43292;BMP280;28754;47.700;7.924;2024-01-10T07:12:14;91678.75;;;-0.53
43292;BMP280;28754;47.700;7.924;2024-01-10T07:15:01;91678.59;;;-0.45
43292;BMP280;28754;47.700;7.924;2024-01-10T07:17:49;91686.41;;;-0.34
43292;BMP280;28754;47.700;7.924;2024-01-10T07:20:36;91678.88;;;-0.28
43292;BMP280;28754;47.700;7.924;2024-01-10T07:23:24;91693.63;;;-0.18
43292;BMP280;28754;47.700;7.924;2024-01-10T07:26:13;91697.53;;;-0.09
43292;BMP280;28754;47.700;7.924;2024-01-10T07:29:01;91695.63;;;-0.01
43292;BMP280;28754;47.700;7.924;2024-01-10T07:31:48;91700.19;;;0.23
43292;BMP280;28754;47.700;7.924;2024-01-10T07:34:35;91704.72;;;0.66
43292;BMP280;28754;47.700;7.924;2024-01-10T07:37:22;91699.50;;;0.61
43292;BMP280;28754;47.700;7.924;2024-01-10T07:40:09;91714.41;;;0.56
43292;BMP280;28754;47.700;7.924;2024-01-10T07:42:57;91714.94;;;0.45
43292;BMP280;28754;47.700;7.924;2024-01-10T07:45:44;91714.34;;;0.30
43292;BMP280;28754;47.700;7.924;2024-01-10T07:48:30;91712.59;;;0.24
43292;BMP280;28754;47.700;7.924;2024-01-10T07:51:17;91708.88;;;0.20
43292;BMP280;28754;47.700;7.924;2024-01-10T07:54:04;91722.84;;;0.23
43292;BMP280;28754;47.700;7.924;2024-01-10T07:56:50;91732.72;;;0.24
43292;BMP280;28754;47.700;7.924;2024-01-10T07:59:39;91731.75;;;0.25
43292;BMP280;28754;47.700;7.924;2024-01-10T08:02:26;91734.28;;;0.25
43292;BMP280;28754;47.700;7.924;2024-01-10T08:05:13;91737.19;;;0.22
43292;BMP280;28754;47.700;7.924;2024-01-10T08:07:59;91732.50;;;0.19
43292;BMP280;28754;47.700;7.924;2024-01-10T08:10:46;91738.66;;;0.10
43292;BMP280;28754;47.700;7.924;2024-01-10T08:13:33;91733.97;;;-0.05
43292;BMP280;28754;47.700;7.924;2024-01-10T08:16:19;91736.03;;;-0.15
43292;BMP280;28754;47.700;7.924;2024-01-10T08:19:07;91740.44;;;-0.24
43292;BMP280;28754;47.700;7.924;2024-01-10T08:21:54;91738.13;;;-0.25
43292;BMP280;28754;47.700;7.924;2024-01-10T08:24:40;91749.38;;;-0.21
43292;BMP280;28754;47.700;7.924;2024-01-10T08:27:27;91749.75;;;-0.18
43292;BMP280;28754;47.700;7.924;2024-01-10T08:30:14;91744.38;;;-0.15
43292;BMP280;28754;47.700;7.924;2024-01-10T08:33:01;91750.38;;;-0.09
43292;BMP280;28754;47.700;7.924;2024-01-10T08:35:47;91748.69;;;-0.02
43292;BMP280;28754;47.700;7.924;2024-01-10T08:38:34;91749.50;;;0.04
43292;BMP280;28754;47.700;7.924;2024-01-10T08:41:21;91752.06;;;0.11
43292;BMP280;28754;47.700;7.924;2024-01-10T08:44:08;91751.09;;;0.18
43292;BMP280;28754;47.700;7.924;2024-01-10T08:46:55;91751.91;;;0.25
43292;BMP280;28754;47.700;7.924;2024-01-10T08:49:41;91755.41;;;0.31
43292;BMP280;28754;47.700;7.924;2024-01-10T08:52:28;91750.75;;;0.34
43292;BMP280;28754;47.700;7.924;2024-01-10T08:55:14;91755.44;;;0.37
43292;BMP280;28754;47.700;7.924;2024-01-10T08:58:01;91752.75;;;0.45
43292;BMP280;28754;47.700;7.924;2024-01-10T09:00:48;91743.47;;;0.52
43292;BMP280;28754;47.700;7.924;2024-01-10T09:03:34;91759.97;;;0.61
43292;BMP280;28754;47.700;7.924;2024-01-10T09:06:21;91752.22;;;0.62
43292;BMP280;28754;47.700;7.924;2024-01-10T09:09:08;91760.38;;;0.70
43292;BMP280;28754;47.700;7.924;2024-01-10T09:11:54;91733.47;;;0.77
43292;BMP280;28754;47.700;7.924;2024-01-10T09:14:41;91762.91;;;0.83
43292;BMP280;28754;47.700;7.924;2024-01-10T09:17:28;91759.06;;;0.87
43292;BMP280;28754;47.700;7.924;2024-01-10T09:20:15;91762.56;;;0.93
43292;BMP280;28754;47.700;7.924;2024-01-10T09:23:02;91761.41;;;1.02
43292;BMP280;28754;47.700;7.924;2024-01-10T09:25:49;91758.50;;;1.11
43292;BMP280;28754;47.700;7.924;2024-01-10T09:28:35;91764.94;;;1.20
43292;BMP280;28754;47.700;7.924;2024-01-10T09:31:22;91765.88;;;1.25
43292;BMP280;28754;47.700;7.924;2024-01-10T09:34:09;91767.25;;;1.34
43292;BMP280;28754;47.700;7.924;2024-01-10T09:36:55;91775.59;;;1.41
43292;BMP280;28754;47.700;7.924;2024-01-10T09:39:42;91766.28;;;1.48
43292;BMP280;28754;47.700;7.924;2024-01-10T09:42:30;91771.13;;;1.49
43292;BMP280;28754;47.700;7.924;2024-01-10T09:45:19;91784.13;;;1.53
43292;BMP280;28754;47.700;7.924;2024-01-10T09:48:06;91768.41;;;1.64
43292;BMP280;28754;47.700;7.924;2024-01-10T09:50:54;91789.56;;;1.75
43292;BMP280;28754;47.700;7.924;2024-01-10T09:53:48;91770.91;;;1.83
43292;BMP280;28754;47.700;7.924;2024-01-10T09:56:37;91767.41;;;1.84
43292;BMP280;28754;47.700;7.924;2024-01-10T09:59:24;91772.66;;;1.76
43292;BMP280;28754;47.700;7.924;2024-01-10T10:02:11;91783.34;;;1.71
43292;BMP280;28754;47.700;7.924;2024-01-10T10:05:25;91788.19;;;1.67
43292;BMP280;28754;47.700;7.924;2024-01-10T10:08:13;91787.81;;;1.63
43292;BMP280;28754;47.700;7.924;2024-01-10T10:11:14;91793.25;;;1.67
43292;BMP280;28754;47.700;7.924;2024-01-10T10:14:16;91793.25;;;1.73
43292;BMP280;28754;47.700;7.924;2024-01-10T10:17:14;91793.22;;;1.86
43292;BMP280;28754;47.700;7.924;2024-01-10T10:20:05;91784.69;;;2.00
43292;BMP280;28754;47.700;7.924;2024-01-10T10:23:04;91787.75;;;2.14
43292;BMP280;28754;47.700;7.924;2024-01-10T10:25:51;91793.72;;;2.33
43292;BMP280;28754;47.700;7.924;2024-01-10T10:28:39;91803.19;;;2.50
43292;BMP280;28754;47.700;7.924;2024-01-10T10:31:26;91794.97;;;2.61
43292;BMP280;28754;47.700;7.924;2024-01-10T10:34:21;91785.63;;;2.68
43292;BMP280;28754;47.700;7.924;2024-01-10T10:37:08;91793.81;;;2.63
43292;BMP280;28754;47.700;7.924;2024-01-10T10:39:55;91798.91;;;2.57
43292;BMP280;28754;47.700;7.924;2024-01-10T10:42:54;91788.03;;;2.50
43292;BMP280;28754;47.700;7.924;2024-01-10T10:45:48;91794.06;;;2.49
43292;BMP280;28754;47.700;7.924;2024-01-10T10:48:36;91800.06;;;2.48
43292;BMP280;28754;47.700;7.924;2024-01-10T10:51:33;91803.97;;;2.50
43292;BMP280;28754;47.700;7.924;2024-01-10T10:54:22;91798.44;;;2.72
43292;BMP280;28754;47.700;7.924;2024-01-10T10:57:10;91788.06;;;2.87
43292;BMP280;28754;47.700;7.924;2024-01-10T10:59:57;91787.59;;;3.03
43292;BMP280;28754;47.700;7.924;2024-01-10T11:02:45;91788.13;;;3.11
43292;BMP280;28754;47.700;7.924;2024-01-10T11:05:32;91779.66;;;3.30
43292;BMP280;28754;47.700;7.924;2024-01-10T11:08:21;91777.66;;;3.62
43292;BMP280;28754;47.700;7.924;2024-01-10T11:15:11;91786.78;;;3.63
43292;BMP280;28754;47.700;7.924;2024-01-10T11:22:16;91775.88;;;3.87
43292;BMP280;28754;47.700;7.924;2024-01-10T11:25:06;91773.38;;;4.40
43292;BMP280;28754;47.700;7.924;2024-01-10T11:27:53;91769.56;;;4.84
43292;BMP280;28754;47.700;7.924;2024-01-10T11:30:59;91760.56;;;5.29
43292;BMP280;28754;47.700;7.924;2024-01-10T11:33:46;91769.41;;;5.38
43292;BMP280;28754;47.700;7.924;2024-01-10T11:36:36;91756.94;;;6.33
43292;BMP280;28754;47.700;7.924;2024-01-10T11:39:22;91749.75;;;5.96
43292;BMP280;28754;47.700;7.924;2024-01-10T11:42:09;91755.28;;;6.89
43292;BMP280;28754;47.700;7.924;2024-01-10T11:44:56;91738.66;;;7.42
43292;BMP280;28754;47.700;7.924;2024-01-10T11:47:42;91738.91;;;7.13
43292;BMP280;28754;47.700;7.924;2024-01-10T11:50:29;91737.75;;;7.96
43292;BMP280;28754;47.700;7.924;2024-01-10T11:53:41;91731.94;;;8.71
43292;BMP280;28754;47.700;7.924;2024-01-10T11:56:40;91730.59;;;8.89
43292;BMP280;28754;47.700;7.924;2024-01-10T11:59:27;91728.06;;;8.89
43292;BMP280;28754;47.700;7.924;2024-01-10T12:02:15;91725.41;;;9.53
43292;BMP280;28754;47.700;7.924;2024-01-10T12:05:01;91726.47;;;9.88
43292;BMP280;28754;47.700;7.924;2024-01-10T12:07:50;91727.63;;;10.38
43292;BMP280;28754;47.700;7.924;2024-01-10T12:10:38;91718.38;;;10.83
43292;BMP280;28754;47.700;7.924;2024-01-10T12:13:25;91715.19;;;11.17
43292;BMP280;28754;47.700;7.924;2024-01-10T12:16:12;91713.50;;;11.47
43292;BMP280;28754;47.700;7.924;2024-01-10T12:19:00;91721.22;;;11.76
43292;BMP280;28754;47.700;7.924;2024-01-10T12:21:49;91718.94;;;11.90
43292;BMP280;28754;47.700;7.924;2024-01-10T12:24:48;91718.44;;;11.98
43292;BMP280;28754;47.700;7.924;2024-01-10T12:27:35;91723.28;;;11.89
43292;BMP280;28754;47.700;7.924;2024-01-10T12:30:22;91710.97;;;11.96
43292;BMP280;28754;47.700;7.924;2024-01-10T12:33:09;91719.69;;;12.10
43292;BMP280;28754;47.700;7.924;2024-01-10T12:36:10;91711.22;;;12.09
43292;BMP280;28754;47.700;7.924;2024-01-10T12:38:56;91710.44;;;12.19
43292;BMP280;28754;47.700;7.924;2024-01-10T12:41:43;91707.34;;;12.32
43292;BMP280;28754;47.700;7.924;2024-01-10T12:44:31;91708.09;;;12.42
43292;BMP280;28754;47.700;7.924;2024-01-10T12:47:22;91712.97;;;12.43
43292;BMP280;28754;47.700;7.924;2024-01-10T12:50:10;91711.66;;;12.51
43292;BMP280;28754;47.700;7.924;2024-01-10T12:52:56;91714.50;;;12.54
43292;BMP280;28754;47.700;7.924;2024-01-10T12:55:44;91710.41;;;12.53
43292;BMP280;28754;47.700;7.924;2024-01-10T12:58:32;91712.47;;;12.51
43292;BMP280;28754;47.700;7.924;2024-01-10T13:01:19;91713.44;;;12.65
43292;BMP280;28754;47.700;7.924;2024-01-10T13:04:06;91715.00;;;12.66
43292;BMP280;28754;47.700;7.924;2024-01-10T13:06:53;91712.97;;;12.53
43292;BMP280;28754;47.700;7.924;2024-01-10T13:09:39;91718.09;;;12.58
43292;BMP280;28754;47.700;7.924;2024-01-10T13:12:26;91718.38;;;12.52
43292;BMP280;28754;47.700;7.924;2024-01-10T13:15:13;91714.53;;;12.49
43292;BMP280;28754;47.700;7.924;2024-01-10T13:17:59;91708.84;;;12.52
43292;BMP280;28754;47.700;7.924;2024-01-10T13:20:46;91719.44;;;12.26
43292;BMP280;28754;47.700;7.924;2024-01-10T13:23:33;91709.19;;;12.06
43292;BMP280;28754;47.700;7.924;2024-01-10T13:26:21;91715.81;;;11.63
43292;BMP280;28754;47.700;7.924;2024-01-10T13:29:08;91716.47;;;11.19
43292;BMP280;28754;47.700;7.924;2024-01-10T13:31:54;91721.56;;;10.54
43292;BMP280;28754;47.700;7.924;2024-01-10T13:34:41;91717.59;;;9.95
43292;BMP280;28754;47.700;7.924;2024-01-10T13:37:28;91729.97;;;9.25
43292;BMP280;28754;47.700;7.924;2024-01-10T13:40:16;91727.38;;;8.35
43292;BMP280;28754;47.700;7.924;2024-01-10T13:43:03;91725.09;;;7.69
43292;BMP280;28754;47.700;7.924;2024-01-10T13:45:49;91735.22;;;7.20
43292;BMP280;28754;47.700;7.924;2024-01-10T13:48:39;91744.69;;;6.81
43292;BMP280;28754;47.700;7.924;2024-01-10T13:51:27;91740.78;;;6.50
43292;BMP280;28754;47.700;7.924;2024-01-10T13:54:14;91753.84;;;6.31
43292;BMP280;28754;47.700;7.924;2024-01-10T13:57:00;91747.88;;;6.15
43292;BMP280;28754;47.700;7.924;2024-01-10T13:59:47;91743.91;;;5.96
43292;BMP280;28754;47.700;7.924;2024-01-10T14:02:35;91745.00;;;5.77
43292;BMP280;28754;47.700;7.924;2024-01-10T14:05:22;91740.53;;;5.61
43292;BMP280;28754;47.700;7.924;2024-01-10T14:08:08;91752.00;;;5.52
43292;BMP280;28754;47.700;7.924;2024-01-10T14:10:55;91747.91;;;5.40
43292;BMP280;28754;47.700;7.924;2024-01-10T14:13:42;91742.16;;;5.33
43292;BMP280;28754;47.700;7.924;2024-01-10T14:16:28;91747.88;;;5.29
43292;BMP280;28754;47.700;7.924;2024-01-10T14:19:15;91746.66;;;5.20
43292;BMP280;28754;47.700;7.924;2024-01-10T14:22:05;91754.56;;;5.12
43292;BMP280;28754;47.700;7.924;2024-01-10T14:24:52;91746.59;;;5.09
43292;BMP280;28754;47.700;7.924;2024-01-10T14:27:40;91753.31;;;5.03
43292;BMP280;28754;47.700;7.924;2024-01-10T14:30:27;91759.81;;;4.99
43292;BMP280;28754;47.700;7.924;2024-01-10T14:33:14;91760.25;;;4.96
43292;BMP280;28754;47.700;7.924;2024-01-10T14:36:00;91765.72;;;4.93
43292;BMP280;28754;47.700;7.924;2024-01-10T14:38:47;91757.00;;;4.89
43292;BMP280;28754;47.700;7.924;2024-01-10T14:41:34;91767.03;;;4.84
43292;BMP280;28754;47.700;7.924;2024-01-10T14:44:20;91759.69;;;4.77
43292;BMP280;28754;47.700;7.924;2024-01-10T14:47:07;91761.97;;;4.67
43292;BMP280;28754;47.700;7.924;2024-01-10T14:49:54;91753.44;;;4.61
43292;BMP280;28754;47.700;7.924;2024-01-10T14:52:40;91754.53;;;4.54
43292;BMP280;28754;47.700;7.924;2024-01-10T14:55:27;91753.84;;;4.47
43292;BMP280;28754;47.700;7.924;2024-01-10T14:58:15;91758.59;;;4.37
43292;BMP280;28754;47.700;7.924;2024-01-10T15:01:01;91754.81;;;4.28
43292;BMP280;28754;47.700;7.924;2024-01-10T15:03:48;91743.41;;;4.19
43292;BMP280;28754;47.700;7.924;2024-01-10T15:06:45;91738.59;;;4.11
43292;BMP280;28754;47.700;7.924;2024-01-10T15:09:33;91737.91;;;4.05
43292;BMP280;28754;47.700;7.924;2024-01-10T15:12:22;91747.09;;;3.99
43292;BMP280;28754;47.700;7.924;2024-01-10T15:15:09;91741.91;;;3.94
43292;BMP280;28754;47.700;7.924;2024-01-10T15:17:57;91737.47;;;3.90
43292;BMP280;28754;47.700;7.924;2024-01-10T15:20:43;91745.69;;;3.85
43292;BMP280;28754;47.700;7.924;2024-01-10T15:23:30;91735.19;;;3.82
43292;BMP280;28754;47.700;7.924;2024-01-10T15:26:17;91737.94;;;3.80
43292;BMP280;28754;47.700;7.924;2024-01-10T15:29:08;91734.84;;;3.78
43292;BMP280;28754;47.700;7.924;2024-01-10T15:31:54;91735.19;;;3.82
43292;BMP280;28754;47.700;7.924;2024-01-10T15:34:41;91735.06;;;3.77
43292;BMP280;28754;47.700;7.924;2024-01-10T15:37:28;91731.38;;;3.73
43292;BMP280;28754;47.700;7.924;2024-01-10T15:40:14;91731.25;;;3.68
43292;BMP280;28754;47.700;7.924;2024-01-10T15:43:01;91733.59;;;3.63
43292;BMP280;28754;47.700;7.924;2024-01-10T15:45:48;91744.16;;;3.60
43292;BMP280;28754;47.700;7.924;2024-01-10T15:48:35;91729.22;;;3.52
43292;BMP280;28754;47.700;7.924;2024-01-10T15:51:22;91736.25;;;3.50
43292;BMP280;28754;47.700;7.924;2024-01-10T15:54:08;91724.78;;;3.48
43292;BMP280;28754;47.700;7.924;2024-01-10T15:56:55;91744.47;;;3.46
43292;BMP280;28754;47.700;7.924;2024-01-10T15:59:42;91738.44;;;3.47
43292;BMP280;28754;47.700;7.924;2024-01-10T16:02:29;91741.16;;;3.45
43292;BMP280;28754;47.700;7.924;2024-01-10T16:05:17;91747.22;;;3.44
43292;BMP280;28754;47.700;7.924;2024-01-10T16:08:05;91741.00;;;3.41
43292;BMP280;28754;47.700;7.924;2024-01-10T16:10:52;91748.03;;;3.39
43292;BMP280;28754;47.700;7.924;2024-01-10T16:13:39;91750.56;;;3.39
43292;BMP280;28754;47.700;7.924;2024-01-10T16:16:28;91744.94;;;3.37
43292;BMP280;28754;47.700;7.924;2024-01-10T16:19:15;91750.41;;;3.34